Time;durP1;ratioP1;P1;durP2;ratioP2;P2;SDS_P1;SDS_P2;PMS_P1;PMS_P2;Temp;Humidity;BMP_temperature;BMP_pressure;BME280_temperature;BME280_humidity;BME280_pressure;Samples;Min_cycle;Max_cycle;Signal;HPM_P1;HPM_P2
2021/12/22 00:00:50;;;;;;;;;10.75;7.50;;;;;21.39;33.91;102226.13;5053238;28;45322;-67
2021/12/22 00:03:17;;;;;;;;;8.25;8.25;;;;;21.38;33.61;102222.66;5051725;28;45465;-67
2021/12/22 00:05:45;;;;;;;;;11.25;8.25;;;;;21.38;33.75;102222.66;5054403;28;47098;-67
2021/12/22 00:08:13;;;;;;;;;9.50;9.00;;;;;21.37;33.88;102217.47;5052595;28;45313;-67
2021/12/22 00:10:42;;;;;;;;;9.25;7.00;;;;;21.36;33.72;102216.66;5051210;28;45390;-67
2021/12/22 00:13:08;;;;;;;;;8.25;7.75;;;;;21.34;33.81;102207.19;5054975;28;45440;-67
2021/12/22 00:15:33;;;;;;;;;10.75;9.50;;;;;21.34;34.12;102204.53;5054976;28;46948;-67
2021/12/22 00:17:59;;;;;;;;;7.00;7.00;;;;;21.34;33.71;102200.06;5056464;28;45433;-67
2021/12/22 00:20:24;;;;;;;;;7.75;7.75;;;;;21.30;33.89;102196.03;5058648;28;45307;-67
2021/12/22 00:22:50;;;;;;;;;11.75;8.75;;;;;21.28;33.58;102190.91;5056526;28;45258;-67
2021/12/22 00:25:16;;;;;;;;;8.75;7.75;;;;;21.26;33.65;102184.06;5055853;28;45393;-67
2021/12/22 00:27:41;;;;;;;;;11.50;10.00;;;;;21.34;33.44;102197.41;5056348;28;45434;-67
2021/12/22 00:30:08;;;;;;;;;9.50;8.25;;;;;21.31;33.52;102192.44;5056523;28;45381;-67
2021/12/22 00:32:35;;;;;;;;;11.75;8.25;;;;;21.34;33.66;102197.41;5058460;28;45678;-67
2021/12/22 00:35:01;;;;;;;;;8.25;8.00;;;;;21.32;33.84;102190.59;5056012;28;47081;-67
2021/12/22 00:37:28;;;;;;;;;11.00;9.00;;;;;21.34;33.43;102186.81;5034770;28;45496;-67
2021/12/22 00:39:55;;;;;;;;;9.00;9.00;;;;;21.32;33.72;102174.72;5044620;28;45363;-67
2021/12/22 00:42:21;;;;;;;;;7.75;7.25;;;;;21.34;33.79;102170.13;5054665;28;45256;-67
2021/12/22 00:44:50;;;;;;;;;9.50;7.00;;;;;21.33;33.76;102171.94;5056965;28;45547;-67
2021/12/22 00:47:28;;;;;;;;;7.50;7.00;;;;;21.29;33.55;102163.44;5057480;28;45430;-67
2021/12/22 00:49:54;;;;;;;;;12.00;9.50;;;;;21.28;33.27;102153.84;5055947;28;45541;-67
2021/12/22 00:52:19;;;;;;;;;6.50;6.50;;;;;21.30;33.35;102156.31;5055815;28;45542;-67
2021/12/22 00:54:45;;;;;;;;;12.25;9.50;;;;;21.25;33.58;102140.88;5053858;28;45527;-67
2021/12/22 00:57:11;;;;;;;;;10.25;8.25;;;;;21.28;33.26;102147.69;5055674;28;47860;-67
2021/12/22 00:59:37;;;;;;;;;11.50;8.25;;;;;21.30;33.40;102148.38;5058243;28;45334;-67
2021/12/22 01:02:05;;;;;;;;;8.00;8.00;;;;;21.31;33.43;102146.59;5055882;28;47217;-67
2021/12/22 01:04:31;;;;;;;;;6.75;6.50;;;;;21.28;33.67;102137.13;5055372;28;47539;-67
2021/12/22 01:06:56;;;;;;;;;11.00;8.25;;;;;21.28;33.44;102137.13;5055760;28;45449;-67
2021/12/22 01:09:22;;;;;;;;;7.00;6.00;;;;;21.23;33.52;102128.78;5055544;28;45438;-67
2021/12/22 01:11:48;;;;;;;;;7.75;7.50;;;;;21.11;33.46;102118.34;5057012;28;45528;-67
2021/12/22 01:14:14;;;;;;;;;7.25;7.25;;;;;21.29;33.42;102146.72;5035323;28;46569;-68
2021/12/22 01:16:39;;;;;;;;;9.25;8.00;;;;;21.26;33.50;102139.06;5051859;28;45425;-67
2021/12/22 01:19:11;;;;;;;;;12.50;9.00;;;;;21.24;33.30;102127.78;5055630;28;45500;-68
2021/12/22 01:24:14;;;;;;;;;7.25;7.25;;;;;21.21;33.66;102128.88;5054501;28;45974;-68
2021/12/22 01:26:45;;;;;;;;;8.00;8.00;;;;;21.25;33.66;102127.66;5053653;28;45403;-67
2021/12/22 01:29:14;;;;;;;;;9.00;9.00;;;;;21.24;33.42;102135.72;5055009;28;45548;-68
2021/12/22 01:31:41;;;;;;;;;11.00;8.50;;;;;21.26;33.36;102133.78;5055315;28;45548;-67
2021/12/22 01:34:07;;;;;;;;;9.00;8.00;;;;;21.18;33.38;102118.63;5053695;28;47189;-67
2021/12/22 01:36:33;;;;;;;;;10.25;7.00;;;;;21.25;33.55;102132.94;5055166;28;45411;-67
2021/12/22 01:38:58;;;;;;;;;9.50;8.50;;;;;21.23;33.64;102134.91;5055468;28;45575;-68
2021/12/22 01:41:24;;;;;;;;;6.00;6.00;;;;;21.24;33.59;102143.66;5057398;28;45426;-67
2021/12/22 01:43:50;;;;;;;;;11.25;8.50;;;;;21.18;33.40;102135.31;5054969;28;46666;-67
2021/12/22 01:49:09;;;;;;;;;7.00;6.25;;;;;21.23;33.37;102137.56;5054846;28;45505;-67
2021/12/22 01:49:55;;;;;;;;;11.00;8.50;;;;;21.18;33.85;102135.31;5055022;28;45553;-67
2021/12/22 01:52:22;;;;;;;;;8.25;8.25;;;;;21.20;33.29;102137.81;5054702;28;45510;-67
2021/12/22 01:55:04;;;;;;;;;9.75;8.50;;;;;21.21;33.36;102139.47;5054595;28;46197;-68
2021/12/22 01:57:33;;;;;;;;;9.25;7.75;;;;;21.21;33.44;102128.09;5054795;28;45501;-68
2021/12/22 02:00:02;;;;;;;;;10.25;9.50;;;;;21.16;33.40;102134.63;5055133;28;45511;-68
2021/12/22 02:02:28;;;;;;;;;7.75;7.75;;;;;21.17;33.71;102135.47;5055767;28;45601;-67
2021/12/22 02:04:54;;;;;;;;;8.75;7.75;;;;;21.20;33.54;102132.53;5054587;28;46204;-68
2021/12/22 02:07:19;;;;;;;;;10.00;9.25;;;;;21.22;33.14;102135.88;5052675;28;45476;-69
2021/12/22 02:12:14;;;;;;;;;9.50;7.50;;;;;21.23;33.38;102132.25;5053540;28;45318;-68
2021/12/22 02:14:41;;;;;;;;;8.25;7.25;;;;;21.22;33.16;102122.63;5056787;28;46605;-68
2021/12/22 02:17:09;;;;;;;;;6.75;6.00;;;;;21.22;33.07;102127.09;5053567;28;45471;-68
2021/12/22 02:19:37;;;;;;;;;9.50;8.00;;;;;21.23;33.04;102126.97;5054486;28;45374;-68
2021/12/22 02:22:08;;;;;;;;;8.00;6.25;;;;;21.25;33.44;102124.16;5054217;28;45326;-67
2021/12/22 02:24:33;;;;;;;;;12.00;9.25;;;;;21.24;33.25;102125.97;5054266;28;46652;-68
2021/12/22 02:27:05;;;;;;;;;11.75;7.25;;;;;21.22;33.34;102125.28;5054498;28;45509;-67
2021/12/22 02:29:39;;;;;;;;;9.50;8.25;;;;;21.22;33.23;102127.94;5056725;28;45406;-68
2021/12/22 02:32:19;;;;;;;;;8.50;8.50;;;;;21.17;33.01;102119.59;5054324;28;45256;-68
2021/12/22 02:34:47;;;;;;;;;6.75;6.50;;;;;21.22;33.36;102127.94;5054195;28;46217;-67
2021/12/22 02:37:17;;;;;;;;;8.00;8.00;;;;;21.22;33.15;102125.28;5052898;28;45619;-67
2021/12/22 02:39:57;;;;;;;;;6.25;6.25;;;;;21.23;33.43;102134.91;5052833;28;45304;-67
2021/12/22 02:42:25;;;;;;;;;10.75;8.00;;;;;21.21;33.36;102139.47;5040105;28;45319;-67
2021/12/22 02:44:50;;;;;;;;;9.50;9.00;;;;;21.19;33.25;102146.72;5054668;28;47357;-68
2021/12/22 02:47:21;;;;;;;;;7.00;7.00;;;;;21.21;33.23;102152.72;5055526;28;45382;-67
2021/12/22 02:49:47;;;;;;;;;5.75;5.75;;;;;21.20;33.12;102148.41;5053860;28;45406;-68
2021/12/22 02:52:13;;;;;;;;;6.50;6.50;;;;;21.20;33.00;102153.72;5052666;28;45349;-68
2021/12/22 02:54:52;;;;;;;;;9.75;8.25;;;;;21.20;33.46;102148.41;5054100;28;45431;-67
2021/12/22 02:57:27;;;;;;;;;6.75;6.75;;;;;21.15;33.03;102140.91;5021520;28;45509;-68
2021/12/22 03:05:11;;;;;;;;;7.75;7.50;;;;;21.17;33.45;102138.09;4991930;28;45438;-68
2021/12/22 03:07:37;;;;;;;;;11.50;8.25;;;;;21.17;33.53;102146.88;4985970;28;45324;-68
2021/12/22 03:10:12;;;;;;;;;9.00;7.00;;;;;21.18;33.59;102139.78;4982431;28;45460;-68
2021/12/22 03:12:39;;;;;;;;;10.00;7.50;;;;;21.17;33.32;102132.81;4981485;28;45309;-67
2021/12/22 03:15:07;;;;;;;;;6.00;6.00;;;;;21.12;33.17;102125.31;4977256;28;46316;-68
2021/12/22 03:17:33;;;;;;;;;8.25;8.25;;;;;21.15;33.14;102134.78;4978759;28;45360;-68
2021/12/22 03:19:58;;;;;;;;;9.25;9.25;;;;;21.10;33.37;102126.44;4981840;28;45633;-67
2021/12/22 03:22:24;;;;;;;;;6.00;5.50;;;;;21.16;33.38;102145.22;4982213;28;45487;-68
2021/12/22 03:24:51;;;;;;;;;7.75;7.75;;;;;21.13;33.28;102142.84;4981853;28;45581;-68
2021/12/22 03:27:17;;;;;;;;;9.25;9.25;;;;;21.12;33.28;102130.59;4978376;28;45455;-68
2021/12/22 03:29:43;;;;;;;;;10.25;8.75;;;;;21.13;33.23;102134.09;4977690;28;45564;-67
2021/12/22 03:32:10;;;;;;;;;8.50;7.00;;;;;21.09;33.14;102124.75;4981271;28;45316;-67
2021/12/22 03:34:36;;;;;;;;;7.00;6.00;;;;;21.13;33.50;102137.53;4981305;28;45391;-68
2021/12/22 03:37:01;;;;;;;;;7.25;7.25;;;;;21.12;33.43;102138.53;4981727;28;45514;-67
2021/12/22 03:39:28;;;;;;;;;8.75;6.25;;;;;21.14;33.23;102143.69;5000038;28;45437;-67
2021/12/22 03:41:54;;;;;;;;;8.50;7.75;;;;;21.14;33.11;102143.69;5053876;28;45584;-67
2021/12/22 03:44:19;;;;;;;;;9.50;8.50;;;;;21.13;33.04;102134.09;5054848;28;46116;-67
2021/12/22 03:46:45;;;;;;;;;8.50;8.50;;;;;21.12;33.38;102129.75;5052906;28;45393;-67
2021/12/22 03:49:12;;;;;;;;;6.25;6.00;;;;;21.13;33.36;102121.66;5053052;28;45533;-68
2021/12/22 03:51:38;;;;;;;;;12.75;8.00;;;;;21.11;33.30;102122.78;5053494;28;45517;-67
2021/12/22 03:54:04;;;;;;;;;10.25;7.50;;;;;21.07;33.35;102109.03;5035017;28;46503;-67
2021/12/22 03:56:30;;;;;;;;;6.75;6.75;;;;;21.12;32.96;102114.72;5055233;28;45389;-67
2021/12/22 03:58:55;;;;;;;;;8.50;8.00;;;;;21.14;33.08;102120.69;5051565;28;49031;-67
2021/12/22 04:01:21;;;;;;;;;8.50;8.50;;;;;21.15;32.87;102121.53;5052173;28;45481;-67
2021/12/22 04:03:50;;;;;;;;;8.00;7.00;;;;;21.12;32.85;102108.59;5052507;28;47187;-67
2021/12/22 04:06:15;;;;;;;;;10.50;9.75;;;;;21.05;32.70;102097.75;5053371;28;45344;-67
2021/12/22 04:08:40;;;;;;;;;9.75;8.75;;;;;21.13;32.94;102105.78;5055151;28;45512;-68
2021/12/22 04:11:06;;;;;;;;;9.50;8.00;;;;;21.13;32.80;102094.41;5051892;28;45471;-67
2021/12/22 04:13:31;;;;;;;;;10.75;8.75;;;;;21.13;32.48;102102.34;5052736;28;46183;-68
2021/12/22 04:15:56;;;;;;;;;7.00;6.25;;;;;21.14;32.91;102096.88;5039086;28;45535;-67
2021/12/22 04:18:22;;;;;;;;;7.00;6.50;;;;;21.15;32.93;102095.06;5052330;28;45475;-67
2021/12/22 04:20:47;;;;;;;;;6.75;6.00;;;;;21.12;33.42;102098.84;5054251;28;45441;-68
2021/12/22 04:23:13;;;;;;;;;6.50;6.25;;;;;21.14;32.91;102099.53;5053678;28;46043;-68
2021/12/22 04:25:39;;;;;;;;;7.00;7.00;;;;;21.15;33.04;102113.59;5051196;28;45414;-68
2021/12/22 04:28:08;;;;;;;;;8.50;6.75;;;;;21.14;32.97;102109.28;5052904;28;45521;-67
2021/12/22 04:30:37;;;;;;;;;10.00;8.25;;;;;21.12;32.86;102105.94;5052805;28;45385;-67
2021/12/22 04:33:03;;;;;;;;;9.75;8.75;;;;;21.13;32.67;102104.97;5052400;28;45674;-67
2021/12/22 04:35:29;;;;;;;;;7.00;6.75;;;;;21.06;32.93;102102.88;5054704;28;45357;-67
2021/12/22 04:37:55;;;;;;;;;9.50;8.25;;;;;21.11;32.83;102099.81;5051063;28;45375;-68
2021/12/22 04:40:20;;;;;;;;;9.00;8.00;;;;;21.10;32.86;102094.66;5052786;28;45540;-67
2021/12/22 04:42:46;;;;;;;;;7.25;7.25;;;;;21.04;33.04;102086.34;5052428;28;46119;-68
2021/12/22 04:45:13;;;;;;;;;7.00;6.00;;;;;21.09;32.76;102099.13;5052519;28;45540;-67
2021/12/22 04:47:39;;;;;;;;;10.75;8.75;;;;;21.11;32.74;102110.41;5050629;28;45364;-67
2021/12/22 04:50:14;;;;;;;;;9.00;7.25;;;;;21.10;32.78;102106.09;5051156;28;45728;-67
2021/12/22 04:52:55;;;;;;;;;7.50;7.00;;;;;21.11;33.03;102098.97;5052285;28;46196;-68
2021/12/22 04:55:22;;;;;;;;;9.25;7.50;;;;;21.11;32.78;102096.31;5052291;28;45470;-68
2021/12/22 04:57:47;;;;;;;;;8.50;8.00;;;;;21.03;32.94;102084.66;5052361;28;45554;-69
2021/12/22 05:00:15;;;;;;;;;6.75;6.50;;;;;21.09;32.87;102093.00;5054330;28;45426;-68
2021/12/22 05:02:41;;;;;;;;;9.00;7.75;;;;;21.05;32.71;102095.09;5057977;28;46253;-68
2021/12/22 05:05:07;;;;;;;;;10.00;7.25;;;;;21.07;32.79;102095.78;5054430;28;45478;-68
2021/12/22 05:07:33;;;;;;;;;8.25;7.50;;;;;21.09;32.82;102101.78;5055660;28;45299;-68
2021/12/22 05:09:58;;;;;;;;;6.75;6.75;;;;;21.05;32.81;102101.22;5055845;28;45368;-66
2021/12/22 05:12:23;;;;;;;;;8.75;8.00;;;;;21.03;32.61;102097.88;5036205;28;47037;-66
2021/12/22 05:14:50;;;;;;;;;7.00;7.00;;;;;21.03;32.87;102091.75;5056285;28;45298;-66
2021/12/22 05:17:37;;;;;;;;;9.25;8.00;;;;;21.06;32.81;102096.75;5055431;28;45389;-66
2021/12/22 05:20:04;;;;;;;;;9.00;8.00;;;;;21.02;32.64;102095.38;5055549;28;45376;-66
2021/12/22 05:22:29;;;;;;;;;9.25;8.00;;;;;21.01;32.80;102085.75;5055417;28;46331;-66
2021/12/22 05:24:57;;;;;;;;;8.50;8.00;;;;;21.04;32.74;102088.13;5055254;28;45397;-66
2021/12/22 05:27:23;;;;;;;;;7.25;7.25;;;;;21.06;32.37;102094.13;5054320;28;45422;-66
2021/12/22 05:29:48;;;;;;;;;7.75;7.25;;;;;21.02;32.67;102074.22;5056339;28;45370;-66
2021/12/22 05:32:13;;;;;;;;;7.75;7.75;;;;;21.03;32.72;102079.34;5056300;28;45409;-66
2021/12/22 05:34:39;;;;;;;;;9.50;7.50;;;;;20.99;32.69;102075.31;5055360;28;45465;-66
2021/12/22 05:37:04;;;;;;;;;7.50;6.25;;;;;21.06;32.50;102096.75;5055385;28;45305;-66
2021/12/22 05:39:29;;;;;;;;;11.75;7.00;;;;;21.05;32.55;102098.56;5055371;28;45476;-66
2021/12/22 05:41:55;;;;;;;;;11.00;9.25;;;;;21.02;32.44;102098.88;5037294;28;48198;-68
2021/12/22 05:44:21;;;;;;;;;7.75;7.75;;;;;21.06;32.66;102110.84;5056476;28;45353;-67
2021/12/22 05:46:46;;;;;;;;;6.75;6.75;;;;;21.05;32.47;102105.69;5055363;28;45484;-68
2021/12/22 05:49:12;;;;;;;;;11.50;8.75;;;;;21.08;32.85;102120.44;5054483;28;45415;-65
2021/12/22 05:51:37;;;;;;;;;10.00;9.50;;;;;21.07;32.64;102124.91;5055097;28;46523;-66
2021/12/22 05:54:03;;;;;;;;;9.50;9.50;;;;;21.01;32.55;102107.78;5054021;28;45479;-66
2021/12/22 05:56:30;;;;;;;;;9.25;9.25;;;;;21.07;32.45;102124.91;5055928;28;45361;-66
2021/12/22 05:58:56;;;;;;;;;10.00;8.00;;;;;21.07;32.56;102116.97;5054672;28;45522;-66
2021/12/22 06:01:21;;;;;;;;;11.00;9.00;;;;;21.06;32.28;102110.84;5054554;28;46627;-66
2021/12/22 06:03:46;;;;;;;;;8.75;8.50;;;;;21.05;32.54;102116.28;5036402;28;45517;-66
2021/12/22 06:06:12;;;;;;;;;10.00;7.50;;;;;21.06;32.47;102113.47;5053626;28;45479;-65
2021/12/22 06:08:37;;;;;;;;;7.50;7.50;;;;;21.05;32.54;102117.09;5057129;28;45284;-66
2021/12/22 06:11:03;;;;;;;;;8.00;8.00;;;;;21.03;32.79;102111.09;5054710;28;46604;-66
2021/12/22 06:13:29;;;;;;;;;12.25;7.75;;;;;21.04;32.40;102120.72;5054225;28;45464;-66
2021/12/22 06:15:54;;;;;;;;;6.50;6.25;;;;;21.00;32.47;102107.91;5053089;28;45298;-66
2021/12/22 06:18:20;;;;;;;;;8.25;8.25;;;;;21.06;32.35;102112.63;5054856;28;45441;-66
2021/12/22 06:20:45;;;;;;;;;11.00;10.00;;;;;21.05;32.19;102109.16;5055650;28;46217;-66
2021/12/22 06:23:11;;;;;;;;;10.75;9.25;;;;;21.05;32.24;102114.44;5055287;28;45429;-66
2021/12/22 06:25:37;;;;;;;;;9.25;8.25;;;;;21.06;32.43;102105.53;5054400;28;45317;-66
2021/12/22 06:28:04;;;;;;;;;10.75;8.75;;;;;20.89;32.27;102085.91;5052905;28;45644;-66
2021/12/22 06:30:30;;;;;;;;;9.50;9.50;;;;;21.03;32.21;102091.75;5054219;28;46383;-66
2021/12/22 06:32:55;;;;;;;;;10.00;7.50;;;;;21.06;32.44;102096.75;5055059;28;45278;-68
2021/12/22 06:35:21;;;;;;;;;8.50;8.50;;;;;20.99;32.42;102099.13;5054166;28;45421;-68
2021/12/22 06:37:47;;;;;;;;;9.00;8.00;;;;;21.04;32.38;102104.84;5054270;28;45444;-68
2021/12/22 06:40:14;;;;;;;;;10.00;10.00;;;;;20.97;32.13;102090.50;5053945;28;45362;-68
2021/12/22 06:42:40;;;;;;;;;12.75;9.75;;;;;21.03;32.12;102110.28;5052526;28;45350;-66
2021/12/22 06:45:08;;;;;;;;;8.00;7.75;;;;;20.99;32.40;102099.13;5053428;28;45460;-66
2021/12/22 06:47:33;;;;;;;;;13.75;8.50;;;;;21.01;32.15;102107.78;5055955;28;45285;-66
2021/12/22 06:49:59;;;;;;;;;11.25;10.25;;;;;20.98;32.34;102093.94;5053715;28;47185;-66
2021/12/22 06:52:24;;;;;;;;;8.50;8.50;;;;;21.02;32.15;102104.16;5054222;28;45400;-66
2021/12/22 06:54:51;;;;;;;;;8.50;8.50;;;;;21.01;32.11;102099.84;5054143;28;45426;-66
2021/12/22 06:57:19;;;;;;;;;10.00;10.00;;;;;21.01;32.17;102109.56;5053754;28;45502;-66
2021/12/22 06:59:45;;;;;;;;;11.25;10.25;;;;;21.02;32.25;102104.16;5055225;28;47532;-68
2021/12/22 07:02:11;;;;;;;;;13.25;11.25;;;;;21.00;32.12;102099.97;5054518;28;45400;-69
2021/12/22 07:04:36;;;;;;;;;10.75;9.25;;;;;20.98;32.30;102088.66;5053697;28;45325;-66
2021/12/22 07:07:02;;;;;;;;;10.50;9.25;;;;;20.99;32.09;102090.34;5053840;28;45536;-66
2021/12/22 07:09:27;;;;;;;;;10.00;10.00;;;;;20.96;32.06;102096.75;5053752;28;47770;-65
2021/12/22 07:11:53;;;;;;;;;9.25;9.25;;;;;20.97;31.96;102090.50;5054153;28;45520;-66
2021/12/22 07:14:18;;;;;;;;;10.25;9.50;;;;;20.98;32.10;102086.00;5053675;28;45350;-66
2021/12/22 07:16:45;;;;;;;;;14.25;11.25;;;;;20.95;32.25;102087.97;5053619;28;45575;-66
2021/12/22 07:19:11;;;;;;;;;9.00;8.00;;;;;21.00;32.00;102095.47;5053426;28;46731;-66
2021/12/22 07:21:37;;;;;;;;;11.25;10.00;;;;;21.00;31.87;102100.78;5053185;28;45499;-66
2021/12/22 07:24:03;;;;;;;;;12.25;11.50;;;;;21.00;32.14;102092.84;5053352;28;45366;-66
2021/12/22 07:26:28;;;;;;;;;12.50;10.75;;;;;20.96;31.90;102084.38;5054422;28;45385;-66
2021/12/22 07:28:54;;;;;;;;;8.50;8.50;;;;;21.00;32.04;102086.72;5032270;28;46079;-66
2021/12/22 07:31:19;;;;;;;;;11.75;10.50;;;;;20.98;31.68;102108.03;5045552;28;45475;-66
2021/12/22 07:34:15;;;;;;;;;12.00;9.00;;;;;21.01;32.00;102097.19;5035815;28;45358;-66
2021/12/22 07:36:58;;;;;;;;;9.75;9.75;;;;;21.01;31.68;102093.69;5045013;28;45600;-65
2021/12/22 07:39:23;;;;;;;;;8.25;5.50;;;;;20.99;31.86;102093.81;5038963;28;46461;-66
2021/12/22 07:41:49;;;;;;;;;11.50;10.25;;;;;21.00;31.91;102099.97;5033803;28;45319;-66
2021/12/22 07:44:15;;;;;;;;;11.50;11.25;;;;;21.00;31.49;102086.72;5055556;28;45396;-66
2021/12/22 07:46:41;;;;;;;;;9.00;9.00;;;;;20.99;31.72;102083.25;5053140;28;45504;-66
2021/12/22 07:49:06;;;;;;;;;11.00;10.50;;;;;20.95;31.75;102080.03;5053138;28;49186;-66
2021/12/22 07:51:31;;;;;;;;;16.00;10.00;;;;;20.95;31.89;102082.69;5051618;28;45400;-66
2021/12/22 07:53:57;;;;;;;;;11.50;10.00;;;;;20.94;31.47;102086.31;5053008;28;45346;-66
2021/12/22 07:56:22;;;;;;;;;13.75;10.25;;;;;21.00;31.63;102097.31;5055404;28;45411;-67
2021/12/22 07:58:48;;;;;;;;;13.75;10.25;;;;;20.92;31.82;102084.81;5052996;28;47294;-67
2021/12/22 08:01:13;;;;;;;;;12.25;9.50;;;;;20.98;31.62;102108.03;5052879;28;45406;-68
2021/12/22 08:03:39;;;;;;;;;11.00;9.75;;;;;20.92;31.85;102090.91;5051971;28;45523;-67
2021/12/22 08:06:04;;;;;;;;;12.00;12.00;;;;;20.97;31.92;102103.72;5053280;28;45399;-66
2021/12/22 08:08:30;;;;;;;;;13.00;10.50;;;;;20.94;31.78;102096.91;5054708;28;46381;-66
2021/12/22 08:10:55;;;;;;;;;11.75;10.25;;;;;20.95;31.71;102090.63;5052936;28;45966;-66
2021/12/22 08:13:20;;;;;;;;;14.50;13.75;;;;;20.96;31.71;102102.03;5052994;28;45444;-66
2021/12/22 08:15:46;;;;;;;;;12.00;10.25;;;;;20.96;31.73;102109.97;5053103;28;45476;-65
2021/12/22 08:18:11;;;;;;;;;13.25;13.25;;;;;20.94;31.66;102096.91;5052821;28;46069;-66
2021/12/22 08:20:37;;;;;;;;;13.25;12.00;;;;;20.91;31.39;102101.63;5055046;28;45437;-67
2021/12/22 08:23:03;;;;;;;;;12.50;11.25;;;;;20.93;31.73;102108.47;5052507;28;45407;-66
2021/12/22 08:25:28;;;;;;;;;13.50;10.00;;;;;20.94;32.13;102111.94;5032796;28;45497;-65
2021/12/22 08:27:54;;;;;;;;;17.75;13.50;;;;;20.92;32.21;102095.38;5042507;28;46482;-66
2021/12/22 08:30:19;;;;;;;;;7.50;7.50;;;;;20.92;32.06;102085.59;5051229;28;45444;-67
2021/12/22 08:32:45;;;;;;;;;7.25;6.25;;;;;20.94;32.52;102082.84;5054266;28;45370;-65
2021/12/22 08:35:13;;;;;;;;;14.50;11.50;;;;;20.94;32.24;102106.66;5055525;28;45558;-65
2021/12/22 08:40:24;;;;;;;;;13.50;11.50;;;;;20.92;32.22;102095.38;5055790;28;45582;-66
2021/12/22 08:42:50;;;;;;;;;13.25;11.75;;;;;20.90;32.46;102114.03;5048473;28;45355;-66
2021/12/22 08:45:17;;;;;;;;;10.75;10.50;;;;;20.93;32.41;102097.03;5055567;28;45426;-65
2021/12/22 08:47:43;;;;;;;;;13.50;10.50;;;;;20.90;32.47;102084.09;5057686;28;46281;-65
2021/12/22 08:50:11;;;;;;;;;13.75;12.50;;;;;20.95;32.72;102092.44;5056159;28;45434;-65
2021/12/22 08:52:36;;;;;;;;;13.25;10.00;;;;;20.91;32.88;102091.06;5054416;28;45613;-65
2021/12/22 08:55:03;;;;;;;;;15.50;12.00;;;;;20.95;32.63;102092.44;5056273;28;49496;-66
2021/12/22 08:57:28;;;;;;;;;15.75;10.75;;;;;20.96;32.95;102088.81;5053346;28;47659;-67
2021/12/22 08:59:54;;;;;;;;;14.25;14.00;;;;;20.97;32.80;102098.44;5055915;28;45437;-68
2021/12/22 09:02:20;;;;;;;;;10.50;10.50;;;;;20.95;32.72;102095.91;5057445;28;45349;-65
2021/12/22 09:04:45;;;;;;;;;12.50;12.00;;;;;20.98;32.64;102107.19;5055896;28;45298;-66
2021/12/22 09:07:11;;;;;;;;;14.00;12.50;;;;;20.99;32.42;102109.72;5054412;28;45338;-65
2021/12/22 09:09:38;;;;;;;;;15.75;15.75;;;;;20.96;32.55;102102.88;5056190;28;45527;-66
2021/12/22 09:12:07;;;;;;;;;14.75;14.00;;;;;20.98;32.42;102110.66;5054989;28;45581;-67
2021/12/22 09:14:32;;;;;;;;;15.00;14.00;;;;;21.01;32.45;102107.78;5057573;28;45462;-67
2021/12/22 09:16:58;;;;;;;;;19.00;14.25;;;;;20.98;32.55;102105.38;5055301;28;46344;-67
2021/12/22 09:19:24;;;;;;;;;17.00;16.00;;;;;20.98;32.16;102102.72;5055376;28;45571;-68
2021/12/22 09:21:51;;;;;;;;;19.25;13.50;;;;;20.99;32.42;102107.06;5048591;28;45444;-67
2021/12/22 09:24:16;;;;;;;;;15.25;13.50;;;;;21.00;32.10;102103.41;5038761;28;45387;-67
2021/12/22 09:26:41;;;;;;;;;13.75;13.75;;;;;21.01;32.08;102104.25;5041386;28;46024;-66
2021/12/22 09:29:07;;;;;;;;;14.50;11.50;;;;;21.01;31.94;102096.31;5046389;28;45696;-67
2021/12/22 09:31:32;;;;;;;;;17.75;15.00;;;;;20.99;32.04;102100.94;5046237;28;45298;-67
2021/12/22 09:33:58;;;;;;;;;15.75;14.00;;;;;21.01;32.22;102101.63;5050629;28;45499;-67
2021/12/22 09:36:24;;;;;;;;;16.50;15.00;;;;;21.00;32.04;102095.47;5053401;28;45311;-68
2021/12/22 09:38:49;;;;;;;;;14.00;14.00;;;;;21.00;32.13;102090.19;5053507;28;45470;-68
2021/12/22 09:41:15;;;;;;;;;15.75;15.00;;;;;20.98;31.96;102112.47;5036871;28;45288;-68
2021/12/22 09:43:41;;;;;;;;;15.00;13.75;;;;;21.00;31.94;102097.31;5046975;28;45502;-68
2021/12/22 09:46:11;;;;;;;;;11.50;10.75;;;;;20.97;32.01;102095.78;5049773;28;45474;-68
2021/12/22 09:53:33;;;;;;;;;10.00;10.00;;;;;20.99;32.20;102085.06;5041487;28;45362;-68
2021/12/22 09:55:59;;;;;;;;;15.00;14.00;;;;;21.00;31.83;102086.72;5041846;28;46430;-68
2021/12/22 09:58:25;;;;;;;;;14.50;11.25;;;;;20.99;32.04;102083.25;5041789;28;45402;-68
2021/12/22 10:00:52;;;;;;;;;14.75;13.25;;;;;20.99;32.22;102082.41;5040209;28;45313;-68
2021/12/22 10:03:18;;;;;;;;;15.00;12.75;;;;;20.80;32.10;102069.06;5054901;28;45412;-68
2021/12/22 10:05:46;;;;;;;;;14.50;11.50;;;;;20.95;31.89;102087.97;5056098;28;46369;-68
2021/12/22 10:08:16;;;;;;;;;13.50;12.00;;;;;20.98;32.02;102093.94;5056635;28;45247;-68
2021/12/22 10:10:47;;;;;;;;;14.50;13.50;;;;;20.94;31.90;102096.06;5053266;28;45545;-68
2021/12/22 10:13:21;;;;;;;;;14.00;13.50;;;;;20.93;32.05;102084.66;5054911;28;45501;-68
2021/12/22 10:15:48;;;;;;;;;15.50;14.00;;;;;20.95;31.63;102087.97;5054535;28;46023;-68
2021/12/22 10:18:17;;;;;;;;;13.75;11.00;;;;;20.91;31.89;102078.66;5054795;28;45548;-68
2021/12/22 10:20:45;;;;;;;;;11.75;11.00;;;;;20.95;31.97;102084.50;5056097;28;45278;-68
2021/12/22 10:23:23;;;;;;;;;14.75;12.25;;;;;20.95;31.96;102093.28;5053664;28;45521;-67
2021/12/22 10:26:04;;;;;;;;;18.00;12.50;;;;;20.94;31.86;102086.31;5054114;28;46192;-68
2021/12/22 10:28:43;;;;;;;;;15.75;13.00;;;;;20.90;31.89;102087.56;5052777;28;45544;-68
2021/12/22 10:31:09;;;;;;;;;14.25;11.75;;;;;20.94;31.96;102078.38;5038784;28;45399;-67
2021/12/22 10:33:39;;;;;;;;;11.75;9.75;;;;;20.94;31.88;102069.63;5053874;28;45524;-68
2021/12/22 10:36:25;;;;;;;;;16.50;11.50;;;;;20.90;31.92;102063.75;5054420;28;45512;-68
2021/12/22 10:39:00;;;;;;;;;11.50;10.25;;;;;20.94;31.86;102059.03;5054905;28;45351;-68
2021/12/22 10:41:31;;;;;;;;;13.75;11.00;;;;;20.94;31.80;102053.75;5056430;28;45440;-68
2021/12/22 10:43:57;;;;;;;;;11.50;10.00;;;;;20.93;31.65;102047.59;5053913;28;45472;-68
2021/12/22 10:46:30;;;;;;;;;14.00;10.25;;;;;20.94;31.55;102043.16;5053669;28;47675;-68
2021/12/22 10:49:21;;;;;;;;;16.00;11.25;;;;;20.87;31.40;102037.59;5053724;28;45495;-68
2021/12/22 10:52:00;;;;;;;;;14.00;12.75;;;;;20.94;31.71;102035.22;5054023;28;45350;-68
2021/12/22 10:54:34;;;;;;;;;8.75;7.00;;;;;20.94;31.57;102037.88;5054156;28;45359;-68
2021/12/22 10:57:02;;;;;;;;;12.00;11.00;;;;;20.94;31.75;102044.00;5052814;28;46541;-68
2021/12/22 10:59:27;;;;;;;;;12.50;11.00;;;;;20.94;31.58;102032.56;5055963;28;45440;-68
2021/12/22 11:01:54;;;;;;;;;11.00;9.50;;;;;20.94;31.43;102029.94;5053958;28;45430;-68
2021/12/22 11:04:30;;;;;;;;;14.75;12.50;;;;;20.94;31.73;102024.63;5053586;28;45356;-68
2021/12/22 11:07:07;;;;;;;;;13.25;10.75;;;;;20.93;31.57;102023.78;5052228;28;45495;-68
2021/12/22 11:09:36;;;;;;;;;13.50;11.50;;;;;20.91;31.71;102009.03;5053559;28;45306;-68
2021/12/22 11:12:02;;;;;;;;;13.50;9.75;;;;;20.90;31.69;101999.44;5054002;28;45586;-68
2021/12/22 11:14:35;;;;;;;;;11.75;10.00;;;;;20.90;31.52;102000.25;5056004;28;45452;-68
2021/12/22 11:17:08;;;;;;;;;12.00;10.75;;;;;20.90;31.46;101987.03;5052997;28;45491;-68
2021/12/22 11:19:58;;;;;;;;;12.00;10.75;;;;;20.92;31.73;101978.97;5052128;28;45663;-68
2021/12/22 11:22:51;;;;;;;;;10.50;10.25;;;;;20.90;31.75;101976.47;5053656;28;45636;-67
2021/12/22 11:25:16;;;;;;;;;15.25;10.50;;;;;20.89;31.39;101968.69;5053660;28;45478;-68
2021/12/22 11:27:42;;;;;;;;;12.00;9.00;;;;;20.91;31.29;101966.72;5053478;28;45490;-68
2021/12/22 11:30:09;;;;;;;;;7.25;5.25;;;;;20.86;31.68;101961.88;5053618;28;45563;-68
2021/12/22 11:32:34;;;;;;;;;13.00;11.00;;;;;20.88;31.15;101967.00;5055361;28;45537;-68
2021/12/22 11:35:03;;;;;;;;;9.50;8.25;;;;;20.89;31.50;101972.16;5053372;28;45367;-68
2021/12/22 11:37:29;;;;;;;;;9.25;8.25;;;;;20.85;31.48;101968.97;5053437;28;45751;-68
2021/12/22 11:39:57;;;;;;;;;15.00;12.00;;;;;20.88;31.33;101967.00;5053183;28;45807;-68